Home > Products > Valid Products > TAF

000
FTUS45 KGGW 291700
TAFGGW
TAF
KGGW 291723Z 2918/3018 08007KT P6SM SKC
     FM300300 09012KT P6SM SKC
     FM301400 VRB04KT P6SM SKC=



000
FTUS45 KGGW 291700
TAFOLF
TAF
KOLF 291723Z 2918/3018 07010KT P6SM SKC
     FM300200 07006KT P6SM SKC
     FM300900 00000KT P6SM SKC=



000
FTUS45 KGGW 291700
TAFOLF
TAF
KOLF 291723Z 2918/3018 07010KT P6SM SKC
     FM300200 07006KT P6SM SKC
     FM300900 00000KT P6SM SKC=



000
FTUS45 KGGW 291700
TAFGDV
TAF
KGDV 291723Z 2918/3018 02009KT P6SM SKC
     FM300300 06006KT P6SM SKC
     FM301200 VRB03KT P6SM SKC
      AMD LTD TO CLD VIS AND WIND=



000
FTUS45 KGGW 291700
TAFGDV
TAF
KGDV 291723Z 2918/3018 02009KT P6SM SKC
     FM300300 06006KT P6SM SKC
     FM301200 VRB03KT P6SM SKC
      AMD LTD TO CLD VIS AND WIND=



000
FTUS45 KGGW 291700
TAFSDY
TAF
KSDY 291723Z 2918/3018 04009KT P6SM SKC
     FM300300 VRB04KT P6SM SKC
      AMD LTD TO CLD VIS AND WIND=



000
FTUS45 KGGW 291100
TAFOLF
TAF
KOLF 291129Z 2912/3012 VRB06KT P6SM FEW150=



000
FTUS45 KGGW 291100
TAFSDY
TAF
KSDY 291129Z 2912/3012 00000KT P6SM FEW200
     FM292100 VRB06KT P6SM FEW100
      AMD LTD TO CLD VIS AND WIND=



000
FTUS45 KGGW 291100
TAFGDV
TAF
KGDV 291129Z 2912/3012 00000KT P6SM FEW150
     FM292100 VRB06KT P6SM FEW100
      AMD LTD TO CLD VIS AND WIND=



000
FTUS45 KGGW 291100
TAFOLF
TAF
KOLF 291129Z 2912/3012 VRB06KT P6SM FEW150=



000
FTUS45 KGGW 291100
TAFGDV
TAF
KGDV 291129Z 2912/3012 00000KT P6SM FEW150
     FM292100 VRB06KT P6SM FEW100
      AMD LTD TO CLD VIS AND WIND=



000
FTUS45 KGGW 291100
TAFGGW
TAF
KGGW 291129Z 2912/3012 VRB04KT P6SM SCT110
     FM300000 09008KT P6SM SKC=



000
FTUS45 KGGW 290700 AAA
TAFGGW
TAF AMD
KGGW 290723Z 2907/3006 07008KT P6SM SCT150
     FM291200 VRB04KT P6SM FEW110
     FM300000 09008KT P6SM SKC=



000
FTUS45 KGGW 290500
TAFGGW
TAF
KGGW 290534Z 2906/3006 07008KT P6SM SCT150
     FM291200 VRB04KT P6SM FEW110=



000
FTUS45 KGGW 290500
TAFOLF
TAF
KOLF 290534Z 2906/3006 VRB06KT P6SM FEW150=



000
FTUS45 KGGW 290500
TAFGDV
TAF
KGDV 290534Z 2906/3006 VRB06KT P6SM SCT120
     FM291200 00000KT P6SM FEW180
     FM292100 VRB06KT P6SM FEW100
      AMD LTD TO CLD VIS AND WIND=



000
FTUS45 KGGW 290500
TAFSDY
TAF
KSDY 290534Z 2906/3006 VRB06KT P6SM SKC
     FM291200 00000KT P6SM FEW210
     FM292100 VRB06KT P6SM FEW100
      AMD LTD TO CLD VIS AND WIND=



000
FTUS45 KGGW 290500
TAFOLF
TAF
KOLF 290534Z 2906/3006 VRB06KT P6SM FEW150=



000
FTUS45 KGGW 290500
TAFGDV
TAF
KGDV 290534Z 2906/3006 VRB06KT P6SM SCT120
     FM291200 00000KT P6SM FEW180
     FM292100 VRB06KT P6SM FEW100
      AMD LTD TO CLD VIS AND WIND=



000
FTUS45 KGGW 282300
TAFSDY
TAF
KSDY 282320Z 2900/2924 VRB06KT P6SM FEW210
     FM291200 00000KT P6SM FEW210
     FM292100 VRB06KT P6SM FEW100
      AMD LTD TO CLD VIS AND WIND=



000
FTUS45 KGGW 282300
TAFOLF
TAF
KOLF 282320Z 2900/2924 VRB06KT P6SM FEW190=



000
FTUS45 KGGW 282300
TAFOLF
TAF
KOLF 282320Z 2900/2924 VRB06KT P6SM FEW190=



000
FTUS45 KGGW 282300
TAFGDV
TAF
KGDV 282320Z 2900/2924 06007KT P6SM FEW180
     FM291200 00000KT P6SM FEW180
     FM292100 VRB06KT P6SM FEW100
      AMD LTD TO CLD VIS AND WIND=



000
FTUS45 KGGW 282300
TAFGDV
TAF
KGDV 282320Z 2900/2924 06007KT P6SM FEW180
     FM291200 00000KT P6SM FEW180
     FM292100 VRB06KT P6SM FEW100
      AMD LTD TO CLD VIS AND WIND=



000
FTUS45 KGGW 282300
TAFGGW
TAF
KGGW 282320Z 2900/2924 07008KT P6SM SCT170
     FM291200 VRB04KT P6SM FEW110=



000
FTUS45 KGGW 281700
TAFGDV
TAF
KGDV 281737Z 2818/2918 VRB03KT P6SM FEW210
     FM290000 06008KT P6SM FEW180
     FM290600 VRB04KT P6SM SCT160
      AMD LTD TO CLD VIS AND WIND=



000
FTUS45 KGGW 281700
TAFOLF
TAF
KOLF 281737Z 2818/2918 VRB03KT P6SM FEW210
     FM290000 06007KT P6SM FEW190
     FM290900 VRB03KT P6SM FEW170=



000
FTUS45 KGGW 281700
TAFGGW
TAF
KGGW 281737Z 2818/2918 VRB05KT P6SM FEW210
     FM290000 07009KT P6SM FEW170=



000
FTUS45 KGGW 281700
TAFOLF
TAF
KOLF 281737Z 2818/2918 VRB03KT P6SM FEW210
     FM290000 06007KT P6SM FEW190
     FM290900 VRB03KT P6SM FEW170=



000
FTUS45 KGGW 281700
TAFGDV
TAF
KGDV 281737Z 2818/2918 VRB03KT P6SM FEW210
     FM290000 06008KT P6SM FEW180
     FM290600 VRB04KT P6SM SCT160
      AMD LTD TO CLD VIS AND WIND=



000
FTUS45 KGGW 281700
TAFSDY
TAF
KSDY 281737Z 2818/2918 VRB04KT P6SM FEW220
      AMD LTD TO CLD VIS AND WIND=



000
FTUS45 KGGW 281100
TAFGDV
TAF
KGDV 281137Z 2812/2912 VRB06KT P6SM SCT250
      AMD LTD TO CLD VIS AND WIND=



000
FTUS45 KGGW 281100
TAFSDY
TAF
KSDY 281137Z 2812/2912 VRB05KT P6SM SKC
      AMD LTD TO CLD VIS AND WIND=



000
FTUS45 KGGW 281100
TAFGGW
TAF
KGGW 281137Z 2812/2912 10010KT P6SM FEW250=



000
FTUS45 KGGW 281100
TAFGDV
TAF
KGDV 281137Z 2812/2912 VRB06KT P6SM SCT250
      AMD LTD TO CLD VIS AND WIND=



000
FTUS45 KGGW 281100
TAFOLF
TAF
KOLF 281137Z 2812/2912 VRB05KT P6SM FEW250=



000
FTUS45 KGGW 281100
TAFOLF
TAF
KOLF 281137Z 2812/2912 VRB05KT P6SM FEW250=



000
FTUS45 KGGW 280500
TAFGDV
TAF
KGDV 280520Z 2806/2906 VRB06KT P6SM SCT250
      AMD LTD TO CLD VIS AND WIND=



000
FTUS45 KGGW 280500
TAFSDY
TAF
KSDY 280520Z 2806/2906 VRB05KT P6SM SKC
      AMD LTD TO CLD VIS AND WIND=



000
FTUS45 KGGW 280500
TAFOLF
TAF
KOLF 280520Z 2806/2906 VRB05KT P6SM FEW250=



000
FTUS45 KGGW 280500
TAFGGW
TAF
KGGW 280520Z 2806/2906 10010KT P6SM FEW250=



000
FTUS45 KGGW 272300
TAFSDY
TAF
KSDY 272320Z 2800/2824 VRB06KT P6SM SCT060
     FM280200 VRB03KT P6SM SKC
      AMD LTD TO CLD VIS AND WIND=



000
FTUS45 KGGW 272300
TAFGDV
TAF
KGDV 272320Z 2800/2824 VRB06KT P6SM BKN060
     FM280200 VRB06KT P6SM SKC
      AMD LTD TO CLD VIS AND WIND=



000
FTUS45 KGGW 272300
TAFOLF
TAF
KOLF 272320Z 2800/2824 VRB06KT P6SM SCT060
     FM280200 VRB03KT P6SM SKC=



000
FTUS45 KGGW 272300
TAFOLF
TAF
KOLF 272320Z 2800/2824 VRB06KT P6SM SCT060
     FM280200 VRB03KT P6SM SKC=



000
FTUS45 KGGW 272300
TAFGDV
TAF
KGDV 272320Z 2800/2824 VRB06KT P6SM BKN060
     FM280200 VRB06KT P6SM SKC
      AMD LTD TO CLD VIS AND WIND=



000
FTUS45 KGGW 272300
TAFGGW
TAF
KGGW 272320Z 2800/2824 VRB06KT P6SM FEW060
     FM280200 10008KT P6SM SKC=



000
FTUS45 KGGW 271700 RRA
TAFOLF
TAF
KOLF 271741Z 2718/2818 VRB06KT P6SM SCT050
     FM280200 VRB04KT P6SM SKC=



000
FTUS45 KGGW 271700 RRA
TAFOLF
TAF
KOLF 271741Z 2718/2818 VRB06KT P6SM SCT050
     FM280200 VRB04KT P6SM SKC=



000
FTUS45 KGGW 271700 RRA
TAFGGW
TAF
KGGW 271741Z 2718/2818 VRB06KT P6SM FEW050
     FM280200 09006KT P6SM SKC=



000
FTUS45 KGGW 271700 RRA
TAFGDV
TAF
KGDV 271741Z 2718/2818 03006KT P6SM SCT050
     FM280200 VRB03KT P6SM SKC
      AMD LTD TO CLD VIS AND WIND=



000
FTUS45 KGGW 271700 RRA
TAFSDY
TAF
KSDY 271741Z 2718/2818 03006KT P6SM SCT050
     FM280200 VRB03KT P6SM SKC
      AMD LTD TO CLD VIS AND WIND=



000
FTUS45 KGGW 271400 AAA
TAFGDV
TAF AMD
KGDV 271410Z 2714/2812 36008KT P6SM SCT020
      TEMPO 2714/2716 BKN020
     FM272000 VRB04KT P6SM SKC
      AMD LTD TO CLD VIS AND WIND=



000
FTUS45 KGGW 271400 AAA
TAFGDV
TAF AMD
KGDV 271410Z 2714/2812 36008KT P6SM SCT020
      TEMPO 2714/2716 BKN020
     FM272000 VRB04KT P6SM SKC
      AMD LTD TO CLD VIS AND WIND=



000
FTUS45 KGGW 271400 AAA
TAFSDY
TAF AMD
KSDY 271407Z 2714/2812 VRB06KT P6SM SCT030
      TEMPO 2714/2716 BKN027
     FM272200 VRB04KT P6SM SKC
      AMD LTD TO CLD VIS AND WIND=



000
FTUS45 KGGW 271100
TAFOLF
TAF
KOLF 271139Z 2712/2812 VRB06KT P6SM SCT020
     FM272100 VRB04KT P6SM SKC=



000
FTUS45 KGGW 271100
TAFGDV
TAF
KGDV 271139Z 2712/2812 VRB06KT P6SM SCT020
     FM272000 VRB04KT P6SM SKC
      AMD LTD TO CLD VIS AND WIND=



000
FTUS45 KGGW 271100
TAFGGW
TAF
KGGW 271139Z 2712/2812 VRB06KT P6SM FEW025
     FM271800 VRB05KT P6SM SKC=



000
FTUS45 KGGW 271100
TAFGDV
TAF
KGDV 271139Z 2712/2812 VRB06KT P6SM SCT020
     FM272000 VRB04KT P6SM SKC
      AMD LTD TO CLD VIS AND WIND=



000
FTUS45 KGGW 271100
TAFSDY
TAF
KSDY 271139Z 2712/2812 VRB06KT P6SM SCT030
      TEMPO 2712/2714 BKN027
     FM272200 VRB04KT P6SM SKC
      AMD LTD TO CLD VIS AND WIND=



000
FTUS45 KGGW 271100
TAFOLF
TAF
KOLF 271139Z 2712/2812 VRB06KT P6SM SCT020
     FM272100 VRB04KT P6SM SKC=



000
FTUS45 KGGW 270900 AAA
TAFSDY
TAF AMD
KSDY 270910Z 2709/2806 VRB06KT P6SM FEW250
      TEMPO 2709/2711 BKN017
      AMD LTD TO CLD VIS AND WIND=



000
FTUS45 KGGW 270500
TAFSDY
TAF
KSDY 270520Z 2706/2806 VRB06KT P6SM FEW250
      AMD LTD TO CLD VIS AND WIND=



000
FTUS45 KGGW 270500
TAFGDV
TAF
KGDV 270520Z 2706/2806 VRB06KT P6SM FEW250
      AMD LTD TO CLD VIS AND WIND=



000
FTUS45 KGGW 270500
TAFOLF
TAF
KOLF 270520Z 2706/2806 VRB06KT P6SM FEW250=



000
FTUS45 KGGW 270500
TAFGGW
TAF
KGGW 270520Z 2706/2806 VRB06KT P6SM FEW250=



000
FTUS45 KGGW 270500
TAFGDV
TAF
KGDV 270520Z 2706/2806 VRB06KT P6SM FEW250
      AMD LTD TO CLD VIS AND WIND=



000
FTUS45 KGGW 270500
TAFOLF
TAF
KOLF 270520Z 2706/2806 VRB06KT P6SM FEW250=



000
FTUS45 KGGW 262300
TAFOLF
TAF
KOLF 262320Z 2700/2724 32017G27KT P6SM FEW060
     FM270130 33009KT P6SM FEW120
     FM270900 VRB05KT P6SM FEW210=



000
FTUS45 KGGW 262300
TAFGDV
TAF
KGDV 262320Z 2700/2724 31014G24KT P6SM FEW070
     FM270200 31010KT P6SM FEW080
     FM271200 VRB06KT P6SM FEW230
      AMD LTD TO CLD VIS AND WIND=



000
FTUS45 KGGW 262300
TAFSDY
TAF
KSDY 262320Z 2700/2724 32015G25KT P6SM FEW060
     FM270200 33010KT P6SM FEW100
     FM270900 VRB06KT P6SM FEW190
      AMD LTD TO CLD VIS AND WIND=



000
FTUS45 KGGW 262300
TAFOLF
TAF
KOLF 262320Z 2700/2724 32017G27KT P6SM FEW060
     FM270130 33009KT P6SM FEW120
     FM270900 VRB05KT P6SM FEW210=



000
FTUS45 KGGW 262300
TAFGDV
TAF
KGDV 262320Z 2700/2724 31014G24KT P6SM FEW070
     FM270200 31010KT P6SM FEW080
     FM271200 VRB06KT P6SM FEW230
      AMD LTD TO CLD VIS AND WIND=



000
FTUS45 KGGW 262300
TAFGGW
TAF
KGGW 262320Z 2700/2724 32016G30KT P6SM FEW060
     FM270200 33009KT P6SM FEW130
     FM270900 VRB05KT P6SM FEW190=



    US Dept of Commerce
    National Oceanic and Atmospheric Administration
    National Weather Service
    1325 East West Highway
    Silver Spring, MD 20910
    Page Author: NWS Internet Services Team
Disclaimer
Information Quality
Credits
Glossary
Privacy Policy
Freedom of Information Act (FOIA)
About Us
Career Opportunities